createdAt,value
2023-02-01T00:00:56.943Z,100994.56
2023-02-01T00:03:23.344Z,101003.28
2023-02-01T00:06:00.072Z,101006.69
2023-02-01T00:08:27.232Z,101013.69
2023-02-01T00:11:05.991Z,101017.09
2023-02-01T00:13:34.797Z,101019.66
2023-02-01T00:16:10.490Z,101008.00
2023-02-01T00:18:37.212Z,101005.91
2023-02-01T00:21:03.858Z,101001.56
2023-02-01T00:23:34.295Z,101003.25
2023-02-01T00:26:15.217Z,100991.88
2023-02-01T00:28:42.113Z,100987.50
2023-02-01T00:31:08.644Z,100975.16
2023-02-01T00:33:35.904Z,100968.97
2023-02-01T00:36:05.731Z,100976.00
2023-02-01T00:38:33.884Z,100976.00
2023-02-01T00:41:05.133Z,100971.50
2023-02-01T00:43:33.002Z,100972.38
2023-02-01T00:45:59.756Z,100967.88
2023-02-01T00:48:26.897Z,100960.72
2023-02-01T00:50:53.411Z,100967.63
2023-02-01T00:53:19.954Z,100963.13
2023-02-01T00:55:48.361Z,100959.38
2023-02-01T00:58:15.205Z,100961.03
2023-02-01T01:00:42.075Z,100965.44
2023-02-01T01:03:18.649Z,100955.59
2023-02-01T01:05:46.473Z,100951.94
2023-02-01T01:08:13.112Z,100959.00
2023-02-01T01:10:40.064Z,100968.66
2023-02-01T01:13:06.473Z,100955.34
2023-02-01T01:15:37.231Z,100965.91
2023-02-01T01:18:04.374Z,100960.56
2023-02-01T01:20:30.819Z,100971.06
2023-02-01T01:22:57.166Z,100974.63
2023-02-01T01:25:23.566Z,100972.78
2023-02-01T01:27:49.994Z,100982.63
2023-02-01T01:30:16.951Z,100978.97
2023-02-01T01:32:43.596Z,100976.31
2023-02-01T01:35:10.737Z,100973.63
2023-02-01T01:37:37.473Z,100978.13
2023-02-01T01:40:06.128Z,100952.28
2023-02-01T01:42:39.058Z,100953.97
2023-02-01T01:45:31.506Z,100956.66
2023-02-01T01:48:07.556Z,100950.34
2023-02-01T01:50:49.352Z,100936.88
2023-02-01T01:53:21.308Z,100945.59
2023-02-01T01:55:50.945Z,100934.94
2023-02-01T01:58:22.264Z,100933.81
2023-02-01T02:00:49.039Z,100923.03
2023-02-01T02:03:28.160Z,100925.44
2023-02-01T02:05:58.464Z,100933.28
2023-02-01T02:08:27.247Z,100915.34
2023-02-01T02:11:00.473Z,100905.28
2023-02-01T02:13:39.196Z,100909.25
2023-02-01T02:16:33.897Z,100908.13
2023-02-01T02:19:24.989Z,100902.38
2023-02-01T02:22:06.688Z,100894.97
2023-02-01T02:24:56.367Z,100884.88
2023-02-01T02:27:37.328Z,100893.31
2023-02-01T02:30:03.636Z,100883.38
2023-02-01T02:32:48.859Z,100880.44
2023-02-01T02:35:30.410Z,100875.53
2023-02-01T02:38:16.417Z,100867.25
2023-02-01T02:41:02.761Z,100872.31
2023-02-01T02:44:07.927Z,100865.59
2023-02-01T02:47:04.006Z,100857.47
2023-02-01T02:49:40.692Z,100859.13
2023-02-01T02:52:36.472Z,100864.63
2023-02-01T02:55:06.468Z,100866.47
2023-02-01T02:57:56.348Z,100841.72
2023-02-01T03:00:50.762Z,100864.03
2023-02-01T03:03:35.604Z,100849.84
2023-02-01T03:06:02.072Z,100855.34
2023-02-01T03:08:32.174Z,100854.34
2023-02-01T03:11:00.411Z,100852.50
2023-02-01T03:13:58.234Z,100847.91
2023-02-01T03:16:31.678Z,100838.06
2023-02-01T03:19:07.547Z,100844.09
2023-02-01T03:21:39.050Z,100823.47
2023-02-01T03:24:15.721Z,100817.28
2023-02-01T03:26:50.344Z,100813.06
2023-02-01T03:29:22.534Z,100819.53
2023-02-01T03:31:49.384Z,100819.63
2023-02-01T03:34:15.778Z,100818.91
2023-02-01T03:36:49.986Z,100818.09
2023-02-01T03:39:21.645Z,100809.34
2023-02-01T03:41:50.923Z,100820.88
2023-02-01T03:44:23.371Z,100811.91
2023-02-01T03:47:15.798Z,100812.75
2023-02-01T03:49:50.439Z,100816.97
2023-02-01T03:52:25.556Z,100823.16
2023-02-01T03:54:53.269Z,100815.97
2023-02-01T03:57:26.246Z,100818.53
2023-02-01T03:59:52.641Z,100811.34
2023-02-01T04:02:19.527Z,100816.56
2023-02-01T04:04:46.518Z,100810.13
2023-02-01T04:07:13.090Z,100810.94
2023-02-01T04:09:39.401Z,100809.13
2023-02-01T04:12:05.839Z,100801.81
2023-02-01T04:14:32.309Z,100791.97
2023-02-01T04:16:58.632Z,100786.50
2023-02-01T04:19:24.971Z,100781.19
2023-02-01T04:21:51.291Z,100775.00
2023-02-01T04:24:17.651Z,100793.69
2023-02-01T04:26:44.171Z,100784.97
2023-02-01T04:29:11.118Z,100764.56
2023-02-01T04:31:37.745Z,100785.09
2023-02-01T04:34:04.139Z,100789.47
2023-02-01T04:36:30.492Z,100786.09
2023-02-01T04:38:56.869Z,100775.41
2023-02-01T04:41:23.697Z,100771.88
2023-02-01T04:43:52.092Z,100778.06
2023-02-01T04:46:18.494Z,100781.56
2023-02-01T04:48:44.843Z,100770.06
2023-02-01T04:51:12.198Z,100770.06
2023-02-01T04:53:38.515Z,100784.38
2023-02-01T04:56:05.477Z,100782.56
2023-02-01T04:58:31.776Z,100772.72
2023-02-01T05:00:58.195Z,100769.22
2023-02-01T05:03:24.632Z,100771.88
2023-02-01T05:05:51.090Z,100766.56
2023-02-01T05:08:17.460Z,100770.06
2023-02-01T05:10:45.924Z,100762.06
2023-02-01T05:13:30.728Z,100757.66
2023-02-01T05:15:57.119Z,100754.03
2023-02-01T05:18:23.503Z,100756.72
2023-02-01T05:20:49.845Z,100758.53
2023-02-01T05:23:16.225Z,100748.69
2023-02-01T05:25:42.560Z,100744.19
2023-02-01T05:28:08.878Z,100731.69
2023-02-01T05:30:36.375Z,100746.75
2023-02-01T05:33:04.281Z,100737.72
2023-02-01T05:35:31.057Z,100741.41
2023-02-01T05:37:57.476Z,100734.22
2023-02-01T05:40:24.285Z,100732.28
2023-02-01T05:42:50.906Z,100735.78
2023-02-01T05:45:17.288Z,100742.94
2023-02-01T05:47:43.641Z,100734.78
2023-02-01T05:50:10.144Z,100732.09
2023-02-01T05:52:36.460Z,100725.94
2023-02-01T05:55:02.881Z,100711.59
2023-02-01T05:57:29.561Z,100710.75
2023-02-01T05:59:55.907Z,100722.28
2023-02-01T06:02:22.708Z,100729.31
2023-02-01T06:04:49.049Z,100720.31
2023-02-01T06:07:15.456Z,100722.84
2023-02-01T06:09:41.905Z,100730.88
2023-02-01T06:12:08.491Z,100736.88
2023-02-01T06:14:34.925Z,100731.53
2023-02-01T06:17:01.463Z,100750.94
2023-02-01T06:19:27.852Z,100759.69
2023-02-01T06:21:54.251Z,100772.03
2023-02-01T06:24:20.789Z,100763.06
2023-02-01T06:26:47.136Z,100766.44
2023-02-01T06:29:13.852Z,100777.81
2023-02-01T06:31:40.808Z,100767.13
2023-02-01T06:34:07.234Z,100784.00
2023-02-01T06:36:33.540Z,100790.06
2023-02-01T06:39:00.716Z,100792.72
2023-02-01T06:41:29.340Z,100774.72
2023-02-01T06:43:56.060Z,100776.41
2023-02-01T06:46:22.493Z,100780.78
2023-02-01T06:48:50.137Z,100776.16
2023-02-01T06:51:27.499Z,100778.84
2023-02-01T06:53:53.859Z,100784.84
2023-02-01T06:56:22.601Z,100788.41
2023-02-01T06:58:49.105Z,100786.56
2023-02-01T07:01:16.869Z,100788.41
2023-02-01T07:03:43.948Z,100794.41
2023-02-01T07:06:10.840Z,100792.47
2023-02-01T07:08:38.542Z,100796.84
2023-02-01T07:11:10.028Z,100805.53
2023-02-01T07:13:36.918Z,100796.56
2023-02-01T07:16:05.574Z,100787.41
2023-02-01T07:18:33.381Z,100817.66
2023-02-01T07:21:00.369Z,100805.84
2023-02-01T07:23:27.633Z,100795.00
2023-02-01T07:26:05.276Z,100806.41
2023-02-01T07:28:34.631Z,100804.72
2023-02-01T07:31:12.753Z,100798.25
2023-02-01T07:33:40.355Z,100804.44
2023-02-01T07:36:11.288Z,100823.00
2023-02-01T07:38:37.695Z,100826.66
2023-02-01T07:41:05.745Z,100825.69
2023-02-01T07:43:34.055Z,100827.50
2023-02-01T07:46:01.326Z,100840.00
2023-02-01T07:48:28.157Z,100829.31
2023-02-01T07:51:01.953Z,100825.53
2023-02-01T07:53:29.877Z,100825.53
2023-02-01T07:55:57.052Z,100825.53
2023-02-01T07:58:24.220Z,100851.13
2023-02-01T08:01:09.657Z,100843.81
2023-02-01T08:03:36.410Z,100852.56
2023-02-01T08:06:03.576Z,100839.88
2023-02-01T08:08:30.043Z,100847.78
2023-02-01T08:11:00.302Z,100851.31
2023-02-01T08:13:26.725Z,100844.13
2023-02-01T08:15:53.134Z,100846.69
2023-02-01T08:18:19.638Z,100852.88
2023-02-01T08:20:46.615Z,100852.88
2023-02-01T08:23:13.376Z,100843.88
2023-02-01T08:25:39.820Z,100848.22
2023-02-01T08:28:07.723Z,100856.25
2023-02-01T08:30:34.295Z,100852.56
2023-02-01T08:33:02.018Z,100840.75
2023-02-01T08:35:42.384Z,100832.63
2023-02-01T08:38:09.865Z,100845.69
2023-02-01T08:40:36.256Z,100849.09
2023-02-01T08:43:02.691Z,100839.94
2023-02-01T08:45:30.817Z,100855.69
2023-02-01T08:47:57.977Z,100852.72
2023-02-01T08:50:25.956Z,100843.59
2023-02-01T08:52:52.880Z,100844.28
2023-02-01T08:55:20.127Z,100845.00
2023-02-01T08:57:46.545Z,100845.56
2023-02-01T09:00:16.654Z,100847.94
2023-02-01T09:02:43.485Z,100845.25
2023-02-01T09:05:10.230Z,100850.31
2023-02-01T09:07:36.760Z,100847.53
2023-02-01T09:10:03.844Z,100847.38
2023-02-01T09:12:32.555Z,100848.94
2023-02-01T09:15:00.554Z,100841.59
2023-02-01T09:19:55.300Z,100833.13
2023-02-01T09:22:22.303Z,100826.66
2023-02-01T09:24:48.697Z,100825.53
2023-02-01T09:27:15.453Z,100817.06
2023-02-01T09:29:42.076Z,100819.47
2023-02-01T09:32:08.596Z,100810.13
2023-02-01T09:34:35.312Z,100810.84
2023-02-01T09:37:01.944Z,100806.91
2023-02-01T09:39:30.965Z,100812.78
2023-02-01T09:42:32.896Z,100802.34
2023-02-01T09:45:08.062Z,100798.25
2023-02-01T09:47:36.033Z,100786.41
2023-02-01T09:50:17.981Z,100799.19
2023-02-01T09:53:06.527Z,100801.56
2023-02-01T09:55:44.884Z,100798.47
2023-02-01T09:58:17.806Z,100797.03
2023-02-01T10:00:54.074Z,100784.34
2023-02-01T10:03:21.334Z,100802.06
2023-02-01T10:06:25.545Z,100796.41
2023-02-01T10:09:18.096Z,100808.84
2023-02-01T10:12:18.437Z,100797.13
2023-02-01T10:15:00.999Z,100793.47
2023-02-01T10:17:57.243Z,100811.22
2023-02-01T10:20:52.220Z,100795.97
2023-02-01T10:23:34.928Z,100787.81
2023-02-01T10:26:10.246Z,100789.47
2023-02-01T10:28:39.648Z,100780.59
2023-02-01T10:31:09.135Z,100787.81
2023-02-01T10:33:53.707Z,100794.13
2023-02-01T10:36:51.546Z,100791.63
2023-02-01T10:39:18.027Z,100789.09
2023-02-01T10:41:44.390Z,100779.38
2023-02-01T10:44:15.312Z,100770.34
2023-02-01T10:46:41.868Z,100779.19
2023-02-01T10:49:18.760Z,100759.31
2023-02-01T10:51:58.272Z,100756.50
2023-02-01T10:54:38.859Z,100745.66
2023-02-01T10:57:21.722Z,100761.56
2023-02-01T10:59:48.047Z,100756.06
2023-02-01T11:02:21.526Z,100764.94
2023-02-01T11:04:47.941Z,100760.41
2023-02-01T11:07:23.860Z,100757.72
2023-02-01T11:09:52.296Z,100745.03
2023-02-01T11:12:28.879Z,100732.66
2023-02-01T11:15:01.887Z,100723.22
2023-02-01T11:17:42.906Z,100726.34
2023-02-01T11:20:45.813Z,100716.06
2023-02-01T11:23:17.419Z,100707.50
2023-02-01T11:25:56.689Z,100710.63
2023-02-01T11:28:30.854Z,100715.59
2023-02-01T11:31:01.652Z,100719.56
2023-02-01T11:33:35.945Z,100711.28
2023-02-01T11:36:09.510Z,100705.81
2023-02-01T11:38:35.990Z,100716.44
2023-02-01T11:41:14.301Z,100720.00
2023-02-01T11:43:59.242Z,100715.69
2023-02-01T11:46:34.703Z,100712.03
2023-02-01T11:49:25.955Z,100702.06
2023-02-01T11:51:58.221Z,100695.63
2023-02-01T11:54:42.490Z,100694.38
2023-02-01T11:57:35.180Z,100693.13
2023-02-01T12:00:40.577Z,100680.88
2023-02-01T12:03:31.076Z,100693.72
2023-02-01T12:06:06.687Z,100693.00
2023-02-01T12:08:38.809Z,100681.75
2023-02-01T12:11:25.937Z,100693.59
2023-02-01T12:14:33.211Z,100695.56
2023-02-01T12:17:33.315Z,100691.34
2023-02-01T12:20:08.460Z,100683.47
2023-02-01T12:22:54.290Z,100692.47
2023-02-01T12:25:23.893Z,100675.72
2023-02-01T12:28:16.169Z,100673.19
2023-02-01T12:30:45.521Z,100674.16
2023-02-01T12:33:38.473Z,100662.78
2023-02-01T12:36:26.955Z,100660.09
2023-02-01T12:39:15.135Z,100653.91
2023-02-01T12:41:56.821Z,100632.50
2023-02-01T12:44:40.512Z,100628.03
2023-02-01T12:47:28.911Z,100624.34
2023-02-01T12:50:17.255Z,100639.16
2023-02-01T12:52:49.141Z,100635.38
2023-02-01T12:55:41.251Z,100629.72
2023-02-01T12:58:17.535Z,100626.59
2023-02-01T13:00:58.335Z,100631.50
2023-02-01T13:03:54.840Z,100619.53
2023-02-01T13:06:30.554Z,100606.88
2023-02-01T13:09:05.681Z,100588.81
2023-02-01T13:11:35.890Z,100604.59
2023-02-01T13:14:02.326Z,100610.50
2023-02-01T13:16:33.559Z,100602.03
2023-02-01T13:19:13.108Z,100605.09
2023-02-01T13:21:44.136Z,100608.19
2023-02-01T13:24:30.445Z,100605.19
2023-02-01T13:26:56.868Z,100609.63
2023-02-01T13:29:25.660Z,100616.41
2023-02-01T13:33:51.209Z,100634.66
2023-02-01T13:35:45.690Z,100640.88
2023-02-01T13:38:31.294Z,100650.88
2023-02-01T13:41:25.366Z,100618.06
2023-02-01T13:43:55.273Z,100654.28
2023-02-01T13:46:22.065Z,100645.03
2023-02-01T13:48:58.274Z,100671.38
2023-02-01T13:51:38.773Z,100675.63
2023-02-01T13:54:06.748Z,100683.66
2023-02-01T13:56:44.651Z,100665.84
2023-02-01T13:59:38.148Z,100678.69
2023-02-01T14:02:41.753Z,100680.06
2023-02-01T14:05:24.466Z,100689.22
2023-02-01T14:08:03.327Z,100664.63
2023-02-01T14:10:51.557Z,100661.13
2023-02-01T14:13:38.874Z,100603.09
2023-02-01T14:16:05.285Z,100637.41
2023-02-01T14:18:34.344Z,100667.03
2023-02-01T14:21:22.972Z,100667.19
2023-02-01T14:24:03.749Z,100688.69
2023-02-01T14:26:36.249Z,100689.38
2023-02-01T14:29:21.616Z,100684.88
2023-02-01T14:32:13.631Z,100682.09
2023-02-01T14:34:49.551Z,100697.13
2023-02-01T14:37:18.878Z,100699.78
2023-02-01T14:39:45.187Z,100683.47
2023-02-01T14:42:37.531Z,100702.16
2023-02-01T14:45:27.736Z,100695.16
2023-02-01T14:48:06.464Z,100702.31
2023-02-01T14:50:38.262Z,100710.47
2023-02-01T14:53:17.808Z,100717.94
2023-02-01T14:56:05.395Z,100707.38
2023-02-01T14:58:57.298Z,100718.06
2023-02-01T15:01:37.169Z,100711.88
2023-02-01T15:04:12.195Z,100719.75
2023-02-01T15:06:58.249Z,100720.44
2023-02-01T15:09:35.192Z,100719.31
2023-02-01T15:12:04.600Z,100726.38
2023-02-01T15:14:41.157Z,100729.59
2023-02-01T15:17:21.318Z,100736.47
2023-02-01T15:19:59.688Z,100727.34
2023-02-01T15:22:27.915Z,100718.38
2023-02-01T15:24:59.499Z,100726.09
2023-02-01T15:27:27.770Z,100713.28
2023-02-01T15:29:54.246Z,100733.81
2023-02-01T15:32:32.516Z,100715.84
2023-02-01T15:35:01.023Z,100733.53
2023-02-01T15:37:28.543Z,100727.19
2023-02-01T15:40:10.323Z,100752.94
2023-02-01T15:42:41.466Z,100723.41
2023-02-01T15:45:18.936Z,100712.47
2023-02-01T15:47:49.415Z,100770.97
2023-02-01T15:50:25.210Z,100753.81
2023-02-01T15:52:54.220Z,100734.09
2023-02-01T15:55:25.504Z,100744.66
2023-02-01T15:57:52.578Z,100741.13
2023-02-01T16:00:30.156Z,100750.84
2023-02-01T16:02:59.413Z,100740.00
2023-02-01T16:05:40.854Z,100744.22
2023-02-01T16:08:18.346Z,100753.94
2023-02-01T16:10:47.013Z,100762.78
2023-02-01T16:13:14.726Z,100760.97
2023-02-01T16:15:41.324Z,100789.53
2023-02-01T16:18:09.162Z,100765.34
2023-02-01T16:20:37.131Z,100788.28
2023-02-01T16:23:04.782Z,100787.56
2023-02-01T16:25:31.376Z,100782.34
2023-02-01T16:27:58.366Z,100767.31
2023-02-01T16:30:25.740Z,100786.28
2023-02-01T16:32:56.589Z,100788.38
2023-02-01T16:35:36.686Z,100794.84
2023-02-01T16:38:09.527Z,100818.34
2023-02-01T16:40:36.201Z,100802.72
2023-02-01T16:43:03.179Z,100805.66
2023-02-01T16:45:29.705Z,100794.28
2023-02-01T16:47:58.052Z,100817.59
2023-02-01T16:50:26.460Z,100809.75
2023-02-01T16:52:54.282Z,100808.19
2023-02-01T16:55:22.911Z,100818.03
2023-02-01T16:57:49.792Z,100830.56
2023-02-01T17:00:25.571Z,100818.16
2023-02-01T17:02:53.944Z,100828.84
2023-02-01T17:05:20.961Z,100830.56
2023-02-01T17:07:47.461Z,100827.16
2023-02-01T17:10:33.959Z,100828.84
2023-02-01T17:13:01.885Z,100831.50
2023-02-01T17:15:35.562Z,100841.09
2023-02-01T17:18:02.920Z,100843.91
2023-02-01T17:20:32.826Z,100845.44
2023-02-01T17:22:59.781Z,100838.28
2023-02-01T17:25:28.609Z,100847.84
2023-02-01T17:27:55.331Z,100837.16
2023-02-01T17:30:22.048Z,100838.97
2023-02-01T17:32:48.739Z,100841.53
2023-02-01T17:35:22.711Z,100849.53
2023-02-01T17:37:49.869Z,100851.50
2023-02-01T17:40:16.917Z,100846.97
2023-02-01T17:42:43.545Z,100846.97
2023-02-01T17:45:36.586Z,100853.88
2023-02-01T17:48:08.171Z,100859.09
2023-02-01T17:50:38.166Z,100850.09
2023-02-01T17:53:09.525Z,100854.47
2023-02-01T17:55:38.264Z,100850.81
2023-02-01T17:58:04.812Z,100851.53
2023-02-01T18:00:31.583Z,100846.91
2023-02-01T18:02:58.032Z,100838.88
2023-02-01T18:05:29.592Z,100851.25
2023-02-01T18:07:56.175Z,100842.38
2023-02-01T18:10:22.595Z,100850.28
2023-02-01T18:12:48.988Z,100845.78
2023-02-01T18:15:21.496Z,100846.63
2023-02-01T18:17:48.509Z,100842.94
2023-02-01T18:20:23.744Z,100844.66
2023-02-01T18:22:50.907Z,100851.69
2023-02-01T18:25:23.459Z,100861.53
2023-02-01T18:27:55.031Z,100855.34
2023-02-01T18:30:23.520Z,100853.63
2023-02-01T18:32:50.125Z,100846.63
2023-02-01T18:35:28.892Z,100854.75
2023-02-01T18:37:56.493Z,100849.69
2023-02-01T18:40:24.398Z,100854.19
2023-02-01T18:42:50.927Z,100858.69
2023-02-01T18:45:24.453Z,100867.44
2023-02-01T18:47:51.356Z,100861.94
2023-02-01T18:50:18.932Z,100876.00
2023-02-01T18:52:45.554Z,100857.84
2023-02-01T18:55:12.621Z,100869.13
2023-02-01T18:57:39.952Z,100873.22
2023-02-01T19:00:09.051Z,100869.13
2023-02-01T19:02:35.747Z,100876.88
2023-02-01T19:05:03.214Z,100863.25
2023-02-01T19:07:29.571Z,100880.72
2023-02-01T19:09:56.136Z,100868.78
2023-02-01T19:12:25.626Z,100897.91
2023-02-01T19:14:51.956Z,100886.94
2023-02-01T19:17:18.456Z,100883.97
2023-02-01T19:19:45.751Z,100908.63
2023-02-01T19:22:12.120Z,100886.94
2023-02-01T19:24:39.589Z,100892.00
2023-02-01T19:27:05.923Z,100885.66
2023-02-01T19:29:32.271Z,100875.84
2023-02-01T19:31:58.921Z,100882.03
2023-02-01T19:34:25.356Z,100887.50
2023-02-01T19:36:52.533Z,100889.31
2023-02-01T19:39:19.291Z,100887.91
2023-02-01T19:41:45.636Z,100881.28
2023-02-01T19:44:14.527Z,100874.69
2023-02-01T19:46:40.982Z,100883.25
2023-02-01T19:49:11.913Z,100891.78
2023-02-01T19:51:42.734Z,100890.50
2023-02-01T19:54:09.098Z,100896.53
2023-02-01T19:56:36.005Z,100896.09
2023-02-01T19:59:03.516Z,100888.38
2023-02-01T20:01:29.993Z,100894.72
2023-02-01T20:04:01.670Z,100898.22
2023-02-01T20:06:33.416Z,100898.09
2023-02-01T20:09:00.417Z,100894.44
2023-02-01T20:11:26.809Z,100899.50
2023-02-01T20:13:54.091Z,100891.34
2023-02-01T20:16:22.057Z,100911.63
2023-02-01T20:18:48.800Z,100898.09
2023-02-01T20:21:15.863Z,100907.81
2023-02-01T20:23:42.576Z,100904.31
2023-02-01T20:26:12.056Z,100902.47
2023-02-01T20:28:38.673Z,100906.13
2023-02-01T20:31:06.399Z,100906.28
2023-02-01T20:33:33.376Z,100911.91
2023-02-01T20:36:00.036Z,100915.81
2023-02-01T20:38:26.362Z,100913.41
2023-02-01T20:40:52.888Z,100915.66
2023-02-01T20:43:19.272Z,100911.53
2023-02-01T20:45:50.478Z,100909.31
2023-02-01T20:48:16.930Z,100913.38
2023-02-01T20:50:43.346Z,100912.06
2023-02-01T20:53:12.802Z,100909.81
2023-02-01T20:55:43.532Z,100912.88
2023-02-01T20:58:09.904Z,100915.94
2023-02-01T21:00:36.394Z,100919.88
2023-02-01T21:03:02.800Z,100927.28
2023-02-01T21:05:39.859Z,100926.72
2023-02-01T21:08:09.124Z,100927.09
2023-02-01T21:10:35.910Z,100930.16
2023-02-01T21:13:05.422Z,100923.41
2023-02-01T21:15:34.801Z,100938.81
2023-02-01T21:18:02.693Z,100932.91
2023-02-01T21:20:29.100Z,100949.31
2023-02-01T21:22:55.869Z,100939.06
2023-02-01T21:25:22.717Z,100942.09
2023-02-01T21:27:49.454Z,100946.00
2023-02-01T21:30:15.901Z,100943.72
2023-02-01T21:32:42.719Z,100943.13
2023-02-01T21:35:09.466Z,100937.22
2023-02-01T21:37:35.989Z,100939.41
2023-02-01T21:40:02.429Z,100932.63
2023-02-01T21:42:30.488Z,100938.22
2023-02-01T21:44:58.288Z,100935.09
2023-02-01T21:47:26.819Z,100936.34
2023-02-01T21:49:54.190Z,100936.59
2023-02-01T21:52:22.004Z,100942.19
2023-02-01T21:54:49.228Z,100945.94
2023-02-01T21:57:15.641Z,100958.44
2023-02-01T21:59:43.440Z,100960.38
2023-02-01T22:02:14.110Z,100961.34
2023-02-01T22:04:40.969Z,100962.47
2023-02-01T22:07:07.653Z,100970.56
2023-02-01T22:09:34.187Z,100974.22
2023-02-01T22:12:00.700Z,100972.53
2023-02-01T22:14:27.221Z,100975.31
2023-02-01T22:16:53.718Z,100984.28
2023-02-01T22:19:20.305Z,100996.75
2023-02-01T22:21:48.267Z,100987.06
2023-02-01T22:24:16.556Z,100990.59
2023-02-01T22:26:44.073Z,101004.91
2023-02-01T22:29:13.053Z,100999.56
2023-02-01T22:31:39.930Z,101009.38
2023-02-01T22:34:06.594Z,101012.06
2023-02-01T22:36:33.528Z,101015.66
2023-02-01T22:38:59.955Z,101023.66
2023-02-01T22:41:26.601Z,101021.97
2023-02-01T22:43:53.080Z,101017.50
2023-02-01T22:46:25.372Z,101032.53
2023-02-01T22:48:52.424Z,101035.22
2023-02-01T22:51:26.961Z,101035.06
2023-02-01T22:53:56.988Z,101036.88
2023-02-01T22:56:30.192Z,101038.56
2023-02-01T22:58:58.556Z,101042.06
2023-02-01T23:01:25.396Z,101051.06
2023-02-01T23:03:55.304Z,101050.22
2023-02-01T23:06:43.766Z,101062.69
2023-02-01T23:09:17.237Z,101057.38
2023-02-01T23:11:43.988Z,101053.00
2023-02-01T23:14:11.530Z,101053.00
2023-02-01T23:16:39.191Z,101058.31
2023-02-01T23:19:06.138Z,101062.81
2023-02-01T23:21:33.678Z,101064.63
2023-02-01T23:24:01.749Z,101068.16
2023-02-01T23:26:30.322Z,101068.97
2023-02-01T23:28:58.126Z,101068.97
2023-02-01T23:31:26.790Z,101070.69
2023-02-01T23:33:56.785Z,101076.88
2023-02-01T23:36:25.612Z,101078.56
2023-02-01T23:38:52.589Z,101076.72
2023-02-01T23:41:20.732Z,101079.41
2023-02-01T23:43:59.296Z,101075.06
2023-02-01T23:46:34.261Z,101070.56
2023-02-01T23:49:01.985Z,101072.38
2023-02-01T23:51:29.645Z,101074.06
2023-02-01T23:53:56.445Z,101085.59
2023-02-01T23:56:41.020Z,101081.13
2023-02-01T23:59:11.986Z,101081.13
